Latest Weather Observations for Canterbury

IDN60901

Issued at 10:12 pm EST Tuesday 5 May 2015 (issued every 10 minutes, with the page automatically refreshed every 10 minutes)

About weather observations | Map of Sydney area stations | Latest observations for Sydney area | Other Formats
Station Details ID: 066194 Name: CANTERBURY RACECOURSE AWS Lat: -33.91 Lon: 151.11 Height: 3.0 m
Data from the previous 72 hours. | See also: Recent months at Canterbury
Date/Time
EST
Tmp

°C
App
Tmp
°C
Dew
Point
°C
Rel
Hum
%
Delta-T

°C
Wind Press
QNH
hPa
Press
MSL
hPa
Rain
since
9 am
mm
Dir
 
Spd
km/h
Gust
km/h
Spd
kts
Gust
kts
05/10:00pm 18.9 15.0 5.4 41 6.6 SW 15 22 8 12 - - 0.0
05/09:30pm 16.7 17.0 11.0 69 3.1 CALM 0 0 0 0 - - 0.0
05/09:00pm 18.6 16.0 9.4 55 4.8 WSW 13 24 7 13 - - 0.0
05/08:30pm 18.0 16.7 9.9 59 4.3 NW 7 11 4 6 - - 0.0
05/08:00pm 17.7 16.7 10.3 62 3.9 N 6 9 3 5 - - 0.0
05/07:30pm 18.5 17.2 9.8 57 4.6 N 7 11 4 6 - - 0.0
05/07:00pm 18.2 18.0 10.6 61 4.1 N 2 7 1 4 - - 0.0
05/06:30pm 19.5 18.0 10.5 56 4.9 N 9 13 5 7 - - 0.0
05/06:00pm 20.0 18.6 9.6 51 5.5 N 7 11 4 6 - - 0.0
05/05:30pm 21.6 19.7 9.2 45 6.6 N 9 15 5 8 - - 0.0
05/05:00pm 23.4 20.1 7.9 37 8.2 N 15 24 8 13 - - 0.0
05/04:30pm 24.6 20.3 7.7 34 8.9 NNW 20 33 11 18 - - 0.0
05/04:00pm 25.1 20.8 7.7 33 9.2 NNW 20 33 11 18 - - 0.0
05/03:30pm 25.4 21.5 8.8 35 9.0 N 19 30 10 16 - - 0.0
05/03:00pm 25.7 21.4 7.8 32 9.5 NNW 20 32 11 17 - - 0.0
05/02:30pm 26.2 21.9 5.2 26 10.7 NW 17 28 9 15 - - 0.0
05/02:00pm 25.9 21.8 6.0 28 10.3 NW 17 32 9 17 - - 0.0
05/01:30pm 25.5 21.8 9.3 36 8.8 NNW 19 28 10 15 - - 0.0
05/01:00pm 25.1 22.8 10.6 40 8.1 NW 13 22 7 12 - - 0.0
05/12:30pm 24.5 22.9 12.8 48 6.7 NW 13 20 7 11 - - 0.0
05/12:00pm 23.6 21.5 12.3 49 6.4 NW 15 26 8 14 - - 0.0
05/11:30am 23.2 20.8 12.8 52 6.0 NNW 17 24 9 13 - - 0.0
05/11:00am 22.7 20.5 13.2 55 5.5 NNW 17 24 9 13 - - 0.0
05/10:30am 21.5 19.3 13.2 59 4.8 NNW 17 24 9 13 - - 0.0
05/10:19am 21.8 20.2 13.9 61 4.6 NNW 15 24 8 13 - - 0.0
05/10:00am 21.2 21.0 14.6 66 3.9 NNW 9 15 5 8 - - 0.0
05/09:30am 19.2 19.5 15.1 77 2.4 WNW 7 13 4 7 - - 0.0
05/09:00am 16.7 18.2 14.7 88 1.1 CALM 0 7 0 4 - - 0.0
05/08:30am 15.8 17.6 15.6 99 0.1 CALM 0 4 0 2 - - 0.0
05/08:04am 14.4 14.6 14.2 99 0.1 W 6 7 3 4 - - 0.0
05/08:00am 14.2 14.3 14.0 99 0.1 W 6 9 3 5 - - 0.0
05/07:30am 13.9 13.9 13.7 99 0.1 WNW 6 7 3 4 - - 0.0
05/07:00am 13.8 13.8 13.6 99 0.1 WNW 6 7 3 4 - - 0.0
05/06:44am 13.8 14.6 13.6 99 0.1 NNW 2 7 1 4 - - 0.0
05/06:30am 13.9 14.3 13.7 99 0.1 NW 4 7 2 4 - - 0.0
05/06:00am 13.8 13.8 13.6 99 0.1 WNW 6 9 3 5 - - 0.0
05/05:55am 13.9 14.7 13.7 99 0.1 NW 2 9 1 5 - - 0.0
05/05:30am 14.2 14.1 14.0 99 0.1 NNW 7 11 4 6 - - 0.0
05/05:00am 14.2 13.8 14.0 99 0.1 WNW 9 13 5 7 - - 0.0
05/04:30am 14.1 13.3 13.9 99 0.1 NW 11 17 6 9 - - 0.0
05/04:00am 14.3 13.9 14.1 99 0.1 NW 9 15 5 8 - - 0.0
05/03:30am 14.3 14.3 14.1 99 0.1 NNW 7 11 4 6 - - 0.0
05/03:00am 14.0 14.1 13.8 99 0.1 NNW 6 7 3 4 - - 0.0
05/02:30am 13.0 13.9 12.8 99 0.1 CALM 0 0 0 0 - - 0.0
05/02:00am 12.0 12.5 11.7 98 0.2 CALM 0 0 0 0 - - 0.0
05/01:30am 12.2 12.8 11.9 98 0.2 CALM 0 0 0 0 - - 0.0
05/01:00am 12.5 13.2 12.2 98 0.2 CALM 0 0 0 0 - - 0.0
05/12:30am 12.6 13.3 12.3 98 0.2 CALM 0 0 0 0 - - 0.0
05/12:00am 12.5 13.2 12.2 98 0.2 CALM 0 0 0 0 - - 0.0
 
Date/Time
EST
Tmp

°C
App
Tmp
°C
Dew
Point
°C
Rel
Hum
%
Delta-T

°C
Wind Press
QNH
hPa
Press
MSL
hPa
Rain
since
9 am
mm
Dir
 
Spd
km/h
Gust
km/h
Spd
kts
Gust
kts
04/11:30pm 13.1 14.0 12.8 98 0.2 CALM 0 0 0 0 - - 0.0
04/11:00pm 12.3 12.9 11.8 97 0.3 CALM 0 0 0 0 - - 0.0
04/10:30pm 13.4 14.3 12.9 97 0.3 CALM 0 0 0 0 - - 0.0
04/10:00pm 14.0 15.1 13.5 97 0.3 CALM 0 0 0 0 - - 0.0
04/09:30pm 13.4 14.2 12.6 95 0.4 CALM 0 0 0 0 - - 0.0
04/09:00pm 14.1 15.1 13.3 95 0.4 CALM 0 0 0 0 - - 0.0
04/08:30pm 14.5 15.7 13.7 95 0.4 CALM 0 0 0 0 - - 0.0
04/08:00pm 14.7 15.8 13.6 93 0.6 CALM 0 0 0 0 - - 0.0
04/07:56pm 14.5 15.5 13.2 92 0.7 CALM 0 0 0 0 - - 0.0
04/07:30pm 14.6 15.6 13.1 91 0.8 CALM 0 0 0 0 - - 0.0
04/07:00pm 15.3 16.5 13.7 90 0.9 CALM 0 0 0 0 - - 0.0
04/06:30pm 16.0 17.4 14.4 90 0.9 CALM 0 0 0 0 - - 0.0
04/06:00pm 16.4 17.4 13.3 82 1.7 CALM 0 0 0 0 - - 0.0
04/05:30pm 17.3 17.2 14.0 81 1.9 ENE 7 9 4 5 - - 0.0
04/05:00pm 18.3 18.0 14.4 78 2.2 ESE 9 13 5 7 - - 0.0
04/04:30pm 19.1 19.0 15.0 77 2.4 ESE 9 13 5 7 - - 0.0
04/04:00pm 19.0 19.0 15.1 78 2.3 E 9 13 5 7 - - 0.0
04/03:30pm 19.3 19.2 15.0 76 2.5 ESE 9 13 5 7 - - 0.0
04/03:00pm 19.5 19.2 14.5 73 2.9 ESE 9 15 5 8 - - 0.0
04/02:30pm 20.0 19.3 14.4 70 3.3 ESE 11 13 6 7 - - 0.0
04/02:00pm 20.5 20.6 14.4 68 3.6 SSE 7 11 4 6 - - 0.0
04/01:30pm 20.6 20.0 14.5 68 3.6 S 11 19 6 10 - - 0.0
04/01:00pm 20.4 19.8 14.7 70 3.3 S 11 19 6 10 - - 0.0
04/12:30pm 19.9 19.6 14.3 70 3.2 SSW 9 13 5 7 - - 0.0
04/12:00pm 19.7 19.9 14.7 73 2.9 SW 7 11 4 6 - - 0.0
04/11:30am 19.4 19.3 14.0 71 3.1 SW 7 15 4 8 - - 0.0
04/11:00am 19.2 19.2 13.6 70 3.2 S 6 9 3 5 - - 0.0
04/10:30am 18.8 18.2 13.4 71 3.1 W 9 13 5 7 - - 0.0
04/10:00am 18.3 17.6 13.2 72 2.9 WSW 9 13 5 7 - - 0.0
04/09:30am 18.0 17.0 13.3 74 2.7 WSW 11 17 6 9 - - 0.0
04/09:00am 17.6 16.4 12.9 74 2.6 WSW 11 17 6 9 - - 0.4
04/08:30am 17.2 16.0 12.9 76 2.4 WSW 11 15 6 8 - - 0.4
04/08:00am 16.7 15.4 12.5 76 2.3 WSW 11 17 6 9 - - 0.4
04/07:30am 16.6 15.7 12.6 77 2.2 WSW 9 13 5 7 - - 0.4
04/07:00am 16.6 15.8 12.8 78 2.1 WSW 9 13 5 7 - - 0.4
04/06:30am 16.5 16.0 12.8 79 2.1 WSW 7 11 4 6 - - 0.4
04/06:00am 16.5 15.7 12.8 79 2.1 WSW 9 13 5 7 - - 0.4
04/05:30am 16.4 15.2 12.8 79 2.0 WSW 11 17 6 9 - - 0.4
04/05:00am 16.5 15.7 12.8 79 2.1 WSW 9 15 5 8 - - 0.4
04/04:30am 16.5 15.7 12.8 79 2.1 WSW 9 13 5 7 - - 0.4
04/04:00am 16.5 16.1 13.0 80 1.9 W 7 11 4 6 - - 0.4
04/03:30am 16.5 16.1 13.0 80 1.9 W 7 13 4 7 - - 0.4
04/03:00am 16.5 16.3 13.0 80 1.9 WSW 6 9 3 5 - - 0.4
04/02:30am 16.6 16.2 12.9 79 2.1 W 7 11 4 6 - - 0.4
04/02:00am 16.5 16.1 13.0 80 1.9 W 7 9 4 5 - - 0.4
04/01:30am 16.6 16.2 12.9 79 2.1 WSW 7 9 4 5 - - 0.4
04/01:00am 16.7 16.2 12.8 78 2.2 WSW 7 11 4 6 - - 0.4
04/12:30am 16.6 16.4 12.9 79 2.1 W 6 9 3 5 - - 0.4
04/12:00am 16.8 16.4 13.1 79 2.1 W 7 9 4 5 - - 0.4
 
Date/Time
EST
Tmp

°C
App
Tmp
°C
Dew
Point
°C
Rel
Hum
%
Delta-T

°C
Wind Press
QNH
hPa
Press
MSL
hPa
Rain
since
9 am
mm
Dir
 
Spd
km/h
Gust
km/h
Spd
kts
Gust
kts
03/11:30pm 16.8 17.9 13.5 81 1.9 CALM 0 6 0 3 - - 0.4
03/11:00pm 16.8 18.0 13.7 82 1.8 CALM 0 0 0 0 - - 0.4
03/10:30pm 16.9 16.9 13.6 81 1.9 W 6 7 3 4 - - 0.4
03/10:00pm 17.2 17.2 13.5 79 2.1 W 6 7 3 4 - - 0.4
03/09:30pm 18.0 17.5 13.7 76 2.4 SW 9 13 5 7 - - 0.4
03/09:00pm 18.4 17.6 14.1 76 2.5 SSW 11 17 6 9 - - 0.4
03/08:30pm 18.4 16.9 14.1 76 2.5 SSW 15 26 8 14 - - 0.4
03/08:00pm 18.4 16.5 14.3 77 2.4 SSW 17 24 9 13 - - 0.4
03/07:30pm 18.6 16.4 14.3 76 2.5 S 19 37 10 20 - - 0.4
03/07:00pm 18.7 15.9 14.2 75 2.6 S 22 33 12 18 - - 0.4
03/06:30pm 18.6 16.4 14.5 77 2.4 S 19 33 10 18 - - 0.4
03/06:00pm 18.6 16.7 14.3 76 2.5 S 17 30 9 16 - - 0.4
03/05:30pm 18.8 17.0 14.5 76 2.5 S 17 26 9 14 - - 0.4
03/05:00pm 18.9 16.8 14.8 77 2.4 S 19 32 10 17 - - 0.4
03/04:30pm 19.2 16.5 15.7 80 2.1 SSE 24 37 13 20 - - 0.4
03/04:00pm 19.6 17.8 15.9 79 2.2 S 20 35 11 19 - - 0.4
03/03:30pm 19.9 18.5 15.5 76 2.6 S 17 32 9 17 - - 0.4
03/03:00pm 20.0 18.1 15.8 77 2.5 S 20 35 11 19 - - 0.4
03/02:30pm 20.5 18.9 16.1 76 2.6 S 19 28 10 15 - - 0.4
03/02:00pm 20.4 18.4 16.4 78 2.4 S 22 37 12 20 - - 0.4
03/01:30pm 20.2 18.7 16.4 79 2.3 S 19 30 10 16 - - 0.4
03/01:00pm 20.1 19.2 16.9 82 1.9 S 17 32 9 17 - - 0.4
03/12:30pm 19.9 19.4 16.9 83 1.8 SSW 15 24 8 13 - - 0.4
03/12:00pm 19.7 19.3 17.1 85 1.6 S 15 24 8 13 - - 0.4
03/11:30am 19.2 18.4 17.2 88 1.2 SSW 17 22 9 12 - - 0.4
03/11:00am 18.7 18.7 17.2 91 0.9 SSW 13 20 7 11 - - 0.4
03/10:30am 18.5 18.5 17.2 92 0.8 SSW 13 24 7 13 - - 0.4
03/10:00am 18.3 18.3 17.1 93 0.7 SSW 13 20 7 11 - - 0.4
03/09:30am 18.2 18.5 17.0 93 0.7 SSW 11 19 6 10 - - 0.0
03/09:00am 18.2 18.2 17.2 94 0.6 SSW 13 20 7 11 - - 35.4
03/08:30am 18.2 18.7 17.4 95 0.5 S 11 19 6 10 - - 35.4
03/08:00am 18.1 18.9 17.3 95 0.5 S 9 15 5 8 - - 35.2
03/07:30am 18.0 18.4 17.2 95 0.5 S 11 19 6 10 - - 35.2
03/07:00am 18.0 18.8 17.2 95 0.5 S 9 17 5 9 - - 35.2
03/06:30am 18.0 18.1 17.4 96 0.4 S 13 24 7 13 - - 35.2
03/06:00am 17.9 17.6 17.3 96 0.4 S 15 24 8 13 - - 35.2
03/05:30am 18.0 17.7 17.4 96 0.4 S 15 22 8 12 - - 35.2
03/05:00am 18.1 17.9 17.5 96 0.4 S 15 22 8 12 - - 35.0
03/04:30am 18.0 18.5 17.4 96 0.4 S 11 24 6 13 - - 35.0
03/04:00am 17.9 17.9 17.3 96 0.4 SSE 13 24 7 13 - - 35.0
03/03:30am 17.9 17.9 17.3 96 0.4 S 13 22 7 12 - - 34.8
03/03:00am 17.9 18.2 17.1 95 0.5 S 11 19 6 10 - - 34.8
03/02:30am 17.9 18.2 17.1 95 0.5 S 11 20 6 11 - - 34.8
03/02:00am 17.9 17.9 17.3 96 0.4 S 13 19 7 10 - - 34.8
03/01:30am 17.9 18.3 17.3 96 0.4 S 11 22 6 12 - - 34.8
03/01:00am 17.9 18.0 17.4 97 0.3 S 13 20 7 11 - - 34.8
03/12:30am 17.8 18.2 17.3 97 0.3 S 11 19 6 10 - - 34.8
03/12:00am 17.8 18.3 17.5 98 0.2 SSE 11 17 6 9 - - 34.6
 
Date/Time
EST
Tmp

°C
App
Tmp
°C
Dew
Point
°C
Rel
Hum
%
Delta-T

°C
Wind Press
QNH
hPa
Press
MSL
hPa
Rain
since
9 am
mm
Dir
 
Spd
km/h
Gust
km/h
Spd
kts
Gust
kts
02/11:33pm 17.8 18.0 17.6 99 0.1 SSE 13 19 7 10 - - 34.6
02/11:30pm 17.8 18.4 17.6 99 0.1 SSE 11 19 6 10 - - 34.6
02/11:00pm 17.7 19.0 17.5 99 0.1 SSE 7 13 4 7 - - 33.4
02/10:30pm 17.6 18.8 17.4 99 0.1 S 7 11 4 6 - - 31.0

Latest Capital City Observations: Canberra | Sydney | Melbourne | Brisbane | Adelaide | Perth | Hobart | Darwin

Other Formats:

Comma delimited format used in spreadsheet applications
http://www.bom.gov.au/fwo/IDN60901/IDN60901.94766.axf

JavaScript Object Notation format (JSON) in row-major order
http://www.bom.gov.au/fwo/IDN60901/IDN60901.94766.json